Map

Track Data

SID SEASON NUMBER BASIN SUBBASIN NAME ISO_TIME NATURE LAT LON WMO_WIND WMO_PRES WMO_AGENCY TRACK_TYPE DIST2LAND LANDFALL IFLAG USA_AGENCY USA_ATCF_ID USA_LAT USA_LON USA_RECORD USA_STATUS USA_WIND USA_PRES USA_SSHS USA_R34_NE USA_R34_SE USA_R34_SW USA_R34_NW USA_R50_NE USA_R50_SE USA_R50_SW USA_R50_NW USA_R64_NE USA_R64_SE USA_R64_SW USA_R64_NW USA_POCI USA_ROCI USA_RMW USA_EYE TOKYO_LAT TOKYO_LON TOKYO_GRADE TOKYO_WIND TOKYO_PRES TOKYO_R50_DIR TOKYO_R50_LONG TOKYO_R50_SHORT TOKYO_R30_DIR TOKYO_R30_LONG TOKYO_R30_SHORT TOKYO_LAND CMA_LAT CMA_LON CMA_CAT CMA_WIND CMA_PRES HKO_LAT HKO_LON HKO_CAT HKO_WIND HKO_PRES NEWDELHI_LAT NEWDELHI_LON NEWDELHI_GRADE NEWDELHI_WIND NEWDELHI_PRES NEWDELHI_CI NEWDELHI_DP NEWDELHI_POCI REUNION_LAT REUNION_LON REUNION_TYPE REUNION_WIND REUNION_PRES REUNION_TNUM REUNION_CI REUNION_RMW REUNION_R34_NE REUNION_R34_SE REUNION_R34_SW REUNION_R34_NW REUNION_R50_NE REUNION_R50_SE REUNION_R50_SW REUNION_R50_NW REUNION_R64_NE REUNION_R64_SE REUNION_R64_SW REUNION_R64_NW BOM_LAT BOM_LON BOM_TYPE BOM_WIND BOM_PRES BOM_TNUM BOM_CI BOM_RMW BOM_R34_NE BOM_R34_SE BOM_R34_SW BOM_R34_NW BOM_R50_NE BOM_R50_SE BOM_R50_SW BOM_R50_NW BOM_R64_NE BOM_R64_SE BOM_R64_SW BOM_R64_NW BOM_ROCI BOM_POCI BOM_EYE BOM_POS_METHOD BOM_PRES_METHOD NADI_LAT NADI_LON NADI_CAT NADI_WIND NADI_PRES WELLINGTON_LAT WELLINGTON_LON WELLINGTON_WIND WELLINGTON_PRES DS824_LAT DS824_LON DS824_STAGE DS824_WIND DS824_PRES TD9636_LAT TD9636_LON TD9636_STAGE TD9636_WIND TD9636_PRES TD9635_LAT TD9635_LON TD9635_WIND TD9635_PRES TD9635_ROCI NEUMANN_LAT NEUMANN_LON NEUMANN_CLASS NEUMANN_WIND NEUMANN_PRES MLC_LAT MLC_LON MLC_CLASS MLC_WIND MLC_PRES USA_GUST BOM_GUST BOM_GUST_PER REUNION_GUST REUNION_GUST_PER USA_SEAHGT USA_SEARAD_NE USA_SEARAD_SE USA_SEARAD_SW USA_SEARAD_NW STORM_SPEED STORM_DIR
1940176N19088 1940 28 NI BB NOT_NAMED 1940-06-23 15:00:00 NR 19.3000 87.5000 main 139 109 __________O___ -1 19.3000 87.5000 3 6 321
1940176N19088 1940 28 NI BB NOT_NAMED 1940-06-23 18:00:00 NR 19.5190 87.3131 main 109 79 __________P___ -1 19.5190 87.3131 3 5 321
1940176N19088 1940 28 NI BB NOT_NAMED 1940-06-23 21:00:00 NR 19.7202 87.1406 main 79 54 __________P___ -1 19.7202 87.1406 3 5 321
1940176N19088 1940 28 NI BB NOT_NAMED 1940-06-24 00:00:00 TS 19.9091 86.9783 main 54 39 _________OP___ -1 20.0000 86.9000 TC 45 19.8864 86.9979 3 4 321
1940176N19088 1940 28 NI BB NOT_NAMED 1940-06-24 03:00:00 TS 20.0000 86.9000 main 39 39 _________PO___ -1 20.0000 86.9000 TC 45 20.0000 86.9000 3 2 321
1940176N19088 1940 28 NI BB NOT_NAMED 1940-06-24 06:00:00 TS 20.0287 86.8752 main 39 39 _________OP___ -1 20.0000 86.9000 TC 45 20.0502 86.8567 3 0 0
1940176N19088 1940 28 NI BB NOT_NAMED 1940-06-24 09:00:00 TS 20.0262 86.8774 main 39 39 _________PP___ -1 20.0000 86.9000 TC 45 20.0524 86.8548 3 0 0
1940176N19088 1940 28 NI BB NOT_NAMED 1940-06-24 12:00:00 TS 20.0142 86.8878 main 39 39 _________OP___ -1 20.0000 86.9000 TC 45 20.0284 86.8755 3 0 0
1940176N19088 1940 28 NI BB NOT_NAMED 1940-06-24 15:00:00 TS 20.0000 86.9000 main 39 39 _________PO___ -1 20.0000 86.9000 TC 41 20.0000 86.9000 3 1 115
1940176N19088 1940 28 NI BB NOT_NAMED 1940-06-24 18:00:00 TS 19.9854 86.9485 main 39 39 _________OP___ -1 20.0000 86.9000 TC 37 19.9709 86.9970 3 1 108
1940176N19088 1940 28 NI BB NOT_NAMED 1940-06-24 21:00:00 TS 19.9618 87.0232 main 45 45 _________PP___ -1 19.9773 86.9674 TC 33 19.9462 87.0791 3 0 106
1940176N19088 1940 28 NI BB NOT_NAMED 1940-06-25 00:00:00 TS 19.9742 86.9858 main 45 24 _________OP___ -1 20.0000 86.9000 TC 30 19.9485 87.0716 3 3 290
1940176N19088 1940 28 NI BB NOT_NAMED 1940-06-25 03:00:00 TS 20.0599 86.7312 main 22 0 _________PO___ -1 20.1198 86.5624 TC 30 20.0000 86.9000 1 7 289
1940176N19088 1940 28 NI BB NOT_NAMED 1940-06-25 06:00:00 TS 20.2169 86.2367 main 0 0 _________OP___ -1 20.3000 86.0000 TC 30 20.1339 86.4733 1 11 288
1940176N19088 1940 28 NI BB NOT_NAMED 1940-06-25 09:00:00 TS 20.4073 85.5770 main 0 0 _________PP___ -1 20.5005 85.2727 TC 30 20.3141 85.8812 1 14 287
1940176N19088 1940 28 NI BB NOT_NAMED 1940-06-25 12:00:00 TS 20.6060 84.8492 main 0 0 _________OP___ -1 20.7000 84.5000 TC 30 20.5120 85.1983 1 14 286
1940176N19088 1940 28 NI BB NOT_NAMED 1940-06-25 15:00:00 TS 20.7823 84.1887 main 0 0 _________PO___ -1 20.8645 83.8773 TC 30 20.7000 84.5000 1 12 285
1940176N19088 1940 28 NI BB NOT_NAMED 1940-06-25 18:00:00 TS 20.9185 83.6126 main 0 0 _________OP___ -1 21.0000 83.3000 TC 30 20.8574 83.8471 1 11 283
1940176N19088 1940 28 NI BB NOT_NAMED 1940-06-25 21:00:00 TS 21.0357 83.0269 main 0 0 _________PP___ -1 21.1081 82.7077 TC 30 20.9875 83.2397 1 11 281
1940176N19088 1940 28 NI BB NOT_NAMED 1940-06-26 00:00:00 TS 21.1325 82.4750 main 0 0 _________OP___ -1 21.2000 82.1000 TC 30 21.0988 82.6625 1 9 281
1940176N19088 1940 28 NI BB NOT_NAMED 1940-06-26 03:00:00 NR 21.2000 82.1000 main 0 __________O___ -1 TC 21.2000 82.1000 1 7 281

About IBTrACS Database

This database is a web-friendly format of International Best Track Archive for Climate Stewardship (IBTrACS), a global best track data archive curated by NOAA dating back to 1842.

Updated: 2021-12-03